Time;durP1;ratioP1;P1;durP2;ratioP2;P2;SDS_P1;SDS_P2;PMS_P1;PMS_P2;Temp;Humidity;BMP_temperature;BMP_pressure;BME280_temperature;BME280_humidity;BME280_pressure;Samples;Min_cycle;Max_cycle;Signal;HPM_P1;HPM_P2
2021/04/15 00:01:43;;;;;;;7.43;6.73;;;;;;;5.50;62.42;96303.41;5024850;28;20210;-82
2021/04/15 00:04:10;;;;;;;7.03;6.27;;;;;;;5.50;62.48;96310.28;5015624;28;20222;-81
2021/04/15 00:06:36;;;;;;;7.67;6.87;;;;;;;5.38;62.52;96296.78;5023131;28;20236;-82
2021/04/15 00:09:08;;;;;;;8.30;6.83;;;;;;;5.39;63.00;96300.94;5030774;28;20223;-82
2021/04/15 00:11:35;;;;;;;6.97;6.30;;;;;;;5.41;62.70;96298.25;5021002;28;20280;-81
2021/04/15 00:14:01;;;;;;;10.17;6.80;;;;;;;5.45;62.25;96302.16;5012185;28;20238;-81
2021/04/15 00:16:29;;;;;;;7.80;7.10;;;;;;;5.40;62.79;96299.19;5025869;28;20201;-82
2021/04/15 00:18:57;;;;;;;7.63;6.93;;;;;;;5.36;63.11;96291.00;5022345;28;20237;-81
2021/04/15 00:21:23;;;;;;;8.10;7.30;;;;;;;5.38;62.77;96294.22;5035632;28;20197;-80
2021/04/15 00:23:49;;;;;;;9.73;7.23;;;;;;;5.41;62.46;96286.28;5034295;28;20264;-81
2021/04/15 00:26:19;;;;;;;7.87;7.07;;;;;;;5.30;62.68;96288.94;5017305;28;20210;-81
2021/04/15 00:28:45;;;;;;;7.67;6.90;;;;;;;5.31;63.30;96288.00;5019140;28;20195;-82
2021/04/15 00:31:11;;;;;;;9.03;7.63;;;;;;;5.29;62.97;96289.06;5035993;28;20209;-79
2021/04/15 00:33:37;;;;;;;9.17;7.67;;;;;;;5.31;63.46;96288.00;5023041;28;20725;-82
2021/04/15 00:36:06;;;;;;;8.07;7.27;;;;;;;5.29;63.58;96289.06;5016123;28;20199;-81
2021/04/15 00:38:32;;;;;;;8.00;7.20;;;;;;;5.35;63.30;96291.94;5020939;28;20211;-81
2021/04/15 00:40:59;;;;;;;7.80;6.90;;;;;;;5.38;63.62;96290.88;5016357;28;20199;-82
2021/04/15 00:43:27;;;;;;;9.23;7.83;;;;;;;5.43;63.44;96291.28;5033228;28;20222;-80
2021/04/15 00:45:55;;;;;;;9.63;7.50;;;;;;;5.42;63.68;96290.47;5035372;28;20236;-80
2021/04/15 00:48:35;;;;;;;8.83;7.87;;;;;;;5.31;64.33;96292.28;5030722;28;20198;-80
2021/04/15 00:51:05;;;;;;;8.67;7.23;;;;;;;5.33;64.34;96291.25;5015524;28;20617;-80
2021/04/15 00:53:36;;;;;;;8.57;7.77;;;;;;;5.36;64.39;96285.88;5015893;28;20269;-80
2021/04/15 00:56:04;;;;;;;8.70;7.80;;;;;;;5.37;64.11;96282.41;5014784;28;20277;-81
2021/04/15 00:58:31;;;;;;;8.33;7.63;;;;;;;5.38;64.07;96283.22;5033486;28;20276;-82
2021/04/15 01:00:57;;;;;;;8.67;7.70;;;;;;;5.38;63.55;96280.66;5025930;28;20195;-82
2021/04/15 01:03:23;;;;;;;9.10;8.20;;;;;;;5.35;64.00;96280.91;5026767;28;20243;-81
2021/04/15 01:05:50;;;;;;;8.67;7.80;;;;;;;5.33;63.84;96281.03;5018976;28;20207;-80
2021/04/15 01:08:17;;;;;;;8.40;7.53;;;;;;;5.37;63.73;96276.47;5015045;28;20214;-81
2021/04/15 01:10:49;;;;;;;8.70;7.93;;;;;;;5.25;64.31;96280.84;5028038;28;20230;-80
2021/04/15 01:13:40;;;;;;;8.37;7.57;;;;;;;5.30;64.26;96283.03;5032511;28;20237;-81
2021/04/15 01:16:15;;;;;;;8.90;7.97;;;;;;;5.25;64.57;96278.28;5018631;28;20668;-82
2021/04/15 01:18:46;;;;;;;8.53;7.70;;;;;;;5.21;64.46;96275.16;5035449;28;20225;-81
2021/04/15 01:21:45;;;;;;;9.90;8.13;;;;;;;5.22;64.29;96276.78;5016529;28;20206;-81
2021/04/15 01:24:17;;;;;;;8.57;7.77;;;;;;;5.27;64.27;96278.16;5033613;28;20218;-82
2021/04/15 01:27:14;;;;;;;8.30;7.50;;;;;;;5.26;64.28;96274.00;5023686;28;20663;-81
2021/04/15 01:29:51;;;;;;;9.07;8.17;;;;;;;5.00;65.38;96268.50;5030466;28;20198;-82
2021/04/15 01:32:22;;;;;;;8.80;7.90;;;;;;;4.98;65.42;96271.16;4995721;28;20211;-80
2021/04/15 01:34:53;;;;;;;9.57;8.50;;;;;;;4.96;65.08;96267.94;5025827;28;20199;-79
2021/04/15 01:37:28;;;;;;;9.03;8.07;;;;;;;4.99;65.15;96271.97;5030220;28;20305;-82
2021/04/15 01:39:58;;;;;;;8.90;7.90;;;;;;;5.04;64.47;96262.19;5013451;28;20190;-81
2021/04/15 01:42:29;;;;;;;9.53;8.50;;;;;;;5.09;64.45;96262.63;5020161;28;20251;-82
2021/04/15 01:45:00;;;;;;;9.40;8.17;;;;;;;5.11;64.42;96264.13;5023228;28;20203;-82
2021/04/15 01:47:30;;;;;;;10.93;7.83;;;;;;;5.08;64.25;96259.25;5019897;28;20278;-82
2021/04/15 01:50:02;;;;;;;9.97;7.47;;;;;;;5.03;64.20;96258.00;5035016;28;20206;-79
2021/04/15 01:52:31;;;;;;;9.40;8.47;;;;;;;4.94;64.58;96261.31;5029545;28;20199;-81
2021/04/15 01:55:02;;;;;;;9.23;8.33;;;;;;;4.94;64.63;96257.03;5014034;28;20199;-81
2021/04/15 01:57:36;;;;;;;9.40;8.50;;;;;;;4.90;64.97;96258.22;5018714;28;20198;-80
2021/04/15 02:00:07;;;;;;;9.60;8.70;;;;;;;4.84;64.82;96256.97;5033600;28;20255;-80
2021/04/15 02:02:39;;;;;;;8.97;7.93;;;;;;;4.80;65.21;96258.16;5018304;28;20714;-82
2021/04/15 02:05:10;;;;;;;9.20;8.40;;;;;;;4.77;65.28;96255.84;5017627;28;20198;-80
2021/04/15 02:07:41;;;;;;;10.10;9.20;;;;;;;4.72;65.17;96252.06;5015023;28;20199;-82
2021/04/15 02:10:09;;;;;;;9.20;8.30;;;;;;;4.60;66.12;96245.41;5014397;28;20221;-81
2021/04/15 02:12:39;;;;;;;10.70;9.20;;;;;;;4.56;65.85;96251.66;5012962;28;20234;-80
2021/04/15 02:15:11;;;;;;;9.90;9.00;;;;;;;4.60;65.97;96251.31;5015449;28;20240;-81
2021/04/15 02:17:40;;;;;;;9.53;8.73;;;;;;;4.61;65.84;96244.47;5032444;28;20567;-80
2021/04/15 02:20:13;;;;;;;10.10;9.10;;;;;;;4.63;65.79;96255.31;5013916;28;20841;-82
2021/04/15 02:22:46;;;;;;;10.23;9.13;;;;;;;4.59;65.74;96257.34;5014119;28;20227;-81
2021/04/15 02:25:19;;;;;;;10.07;9.07;;;;;;;4.59;65.85;96256.53;5013916;28;20238;-80
2021/04/15 02:27:51;;;;;;;10.30;9.30;;;;;;;4.60;65.96;96256.41;5014176;28;20202;-81
2021/04/15 02:30:21;;;;;;;10.13;9.13;;;;;;;4.58;65.52;96258.28;5012619;28;20221;-81
2021/04/15 02:32:55;;;;;;;10.57;9.47;;;;;;;4.63;65.19;96266.34;5015286;28;20215;-81
2021/04/15 02:35:25;;;;;;;11.83;9.20;;;;;;;4.63;65.64;96266.34;5032854;28;20898;-81
2021/04/15 02:37:55;;;;;;;10.53;9.50;;;;;;;4.69;64.90;96257.41;5024147;28;20215;-81
2021/04/15 02:40:24;;;;;;;10.57;9.40;;;;;;;4.74;65.01;96255.28;5031245;28;20622;-80
2021/04/15 02:42:51;;;;;;;11.20;10.07;;;;;;;4.73;65.22;96254.47;5024078;28;20218;-81
2021/04/15 02:45:27;;;;;;;9.93;8.90;;;;;;;4.64;65.17;96257.75;5011941;28;20206;-80
2021/04/15 02:48:01;;;;;;;9.80;8.83;;;;;;;4.66;64.97;96262.75;5012622;28;20281;-81
2021/04/15 02:50:29;;;;;;;10.03;9.00;;;;;;;4.63;65.04;96261.25;5012270;28;20207;-81
2021/04/15 02:53:02;;;;;;;9.93;8.93;;;;;;;4.61;64.86;96255.47;5029861;28;20222;-81
2021/04/15 02:55:34;;;;;;;10.83;9.73;;;;;;;4.43;65.55;96257.72;5014345;28;20205;-79
2021/04/15 02:58:05;;;;;;;9.93;8.93;;;;;;;4.34;65.89;96260.22;5012233;28;20214;-81
2021/04/15 03:00:36;;;;;;;12.13;9.87;;;;;;;4.20;66.92;96263.06;5028473;28;20565;-81
2021/04/15 03:03:04;;;;;;;10.00;9.00;;;;;;;3.89;68.06;96262.06;5031863;28;20226;-80
2021/04/15 03:05:38;;;;;;;10.73;9.10;;;;;;;3.83;67.90;96258.28;5015007;28;20195;-82
2021/04/15 03:08:05;;;;;;;9.10;8.20;;;;;;;3.89;67.26;96262.06;5012108;28;20207;-79
2021/04/15 03:10:33;;;;;;;8.97;8.10;;;;;;;4.04;66.72;96253.25;5027877;28;20229;-81
2021/04/15 03:13:05;;;;;;;9.00;8.10;;;;;;;4.18;66.42;96255.53;5027237;28;20329;-81
2021/04/15 03:15:38;;;;;;;8.93;7.97;;;;;;;4.15;65.62;96253.22;5012915;28;20234;-81
2021/04/15 03:18:12;;;;;;;10.50;8.60;;;;;;;4.14;65.76;96259.25;5017020;28;20689;-81
2021/04/15 03:20:43;;;;;;;10.57;7.83;;;;;;;4.21;65.34;96262.13;5014380;28;20197;-81
2021/04/15 03:23:15;;;;;;;8.43;7.57;;;;;;;4.27;65.16;96257.34;5016014;28;20211;-81
2021/04/15 03:25:41;;;;;;;8.73;7.90;;;;;;;4.27;64.96;96254.78;5031444;28;20198;-80
2021/04/15 03:28:14;;;;;;;9.10;8.20;;;;;;;4.11;65.05;96257.72;5016138;28;20209;-80
2021/04/15 03:30:46;;;;;;;9.80;7.33;;;;;;;4.15;65.51;96255.75;5027188;28;20285;-82
2021/04/15 03:33:17;;;;;;;21.47;10.73;;;;;;;4.17;65.53;96256.44;5016293;28;20222;-80
2021/04/15 03:35:51;;;;;;;14.20;8.53;;;;;;;4.21;64.87;96252.75;5011921;28;20203;-80
2021/04/15 03:38:20;;;;;;;10.07;8.03;;;;;;;4.13;64.84;96258.44;5021912;28;20226;-81
2021/04/15 03:40:49;;;;;;;8.47;7.63;;;;;;;4.12;64.90;96254.25;5022396;28;20207;-80
2021/04/15 03:43:22;;;;;;;8.80;7.90;;;;;;;4.06;65.18;96259.81;5011011;28;20230;-81
2021/04/15 03:45:53;;;;;;;8.63;7.70;;;;;;;4.04;65.15;96259.13;5016053;28;20574;-81
2021/04/15 03:48:24;;;;;;;12.37;8.00;;;;;;;3.95;65.32;96256.50;5031340;28;20206;-80
2021/04/15 03:50:53;;;;;;;8.37;7.33;;;;;;;3.97;65.32;96252.09;5014039;28;20203;-80
2021/04/15 03:53:24;;;;;;;9.57;7.30;;;;;;;4.03;65.04;96251.63;5010945;28;20254;-81
2021/04/15 03:55:56;;;;;;;9.67;6.73;;;;;;;4.00;64.66;96251.88;5022237;28;20191;-81
2021/04/15 03:58:27;;;;;;;8.97;7.47;;;;;;;4.05;64.62;96258.22;5011908;28;20250;-80
2021/04/15 04:01:01;;;;;;;12.47;7.17;;;;;;;4.08;64.45;96259.69;5024603;28;20217;-81
2021/04/15 04:03:29;;;;;;;10.60;7.10;;;;;;;4.07;64.43;96256.34;5031561;28;20210;-81
2021/04/15 04:06:02;;;;;;;7.97;6.90;;;;;;;4.10;64.25;96261.22;5017806;28;20207;-80
2021/04/15 04:08:40;;;;;;;7.80;7.00;;;;;;;4.07;64.16;96260.63;4991199;28;20203;-80
2021/04/15 04:11:08;;;;;;;7.63;6.83;;;;;;;4.09;63.96;96258.78;5018472;28;20226;-79
2021/04/15 04:13:36;;;;;;;7.17;6.47;;;;;;;4.05;64.64;96265.84;5030723;28;20226;-80
2021/04/15 04:16:08;;;;;;;7.27;6.57;;;;;;;4.05;64.63;96268.41;5018083;28;20199;-81
2021/04/15 04:18:43;;;;;;;7.43;6.73;;;;;;;4.10;64.20;96270.59;5029037;28;20218;-79
2021/04/15 04:21:14;;;;;;;8.17;6.73;;;;;;;4.12;64.19;96268.72;5011508;28;20262;-81
2021/04/15 04:23:44;;;;;;;6.67;6.07;;;;;;;4.15;63.96;96271.06;5012264;28;20218;-79
2021/04/15 04:26:18;;;;;;;9.00;8.07;;;;;;;4.15;63.55;96264.22;5008747;28;20282;-81
2021/04/15 04:29:02;;;;;;;10.83;7.07;;;;;;;3.98;65.07;96269.00;5029783;28;20614;-80
2021/04/15 04:31:35;;;;;;;7.70;6.57;;;;;;;3.95;64.30;96261.59;5027429;28;20206;-81
2021/04/15 04:34:03;;;;;;;9.10;6.30;;;;;;;3.99;64.15;96265.53;5010861;28;20589;-81
2021/04/15 04:36:34;;;;;;;9.07;6.77;;;;;;;3.96;64.05;96260.66;5011729;28;20600;-81
2021/04/15 04:39:00;;;;;;;6.93;6.23;;;;;;;3.96;63.87;96264.03;5011631;28;20214;-80
2021/04/15 04:41:31;;;;;;;9.00;6.60;;;;;;;3.94;64.36;96268.44;5013589;28;20690;-80
2021/04/15 04:44:02;;;;;;;8.80;6.83;;;;;;;3.99;63.81;96278.28;5022049;28;20250;-81
2021/04/15 04:46:41;;;;;;;7.93;7.00;;;;;;;3.96;64.42;96275.97;5014055;28;20229;-80
2021/04/15 04:49:15;;;;;;;7.93;6.77;;;;;;;3.98;64.10;96274.91;5030812;28;20198;-81
2021/04/15 04:51:48;;;;;;;7.43;6.67;;;;;;;3.89;64.65;96279.91;5009217;28;20207;-80
2021/04/15 04:54:25;;;;;;;9.07;7.10;;;;;;;3.87;64.48;96280.00;5002732;28;20231;-81
2021/04/15 04:57:19;;;;;;;50.17;36.23;;;;;;;3.84;64.51;96287.91;5014159;28;20190;-80
2021/04/15 05:03:37;;;;;;;9.47;6.97;;;;;;;3.78;64.15;96283.28;4962189;28;20234;-81
2021/04/15 05:09:30;;;;;;;12.97;6.47;;;;;;;3.79;63.74;96285.72;5015369;28;20209;-79
2021/04/15 05:11:57;;;;;;;8.17;6.20;;;;;;;3.84;63.23;96294.75;5026427;28;20205;-78
2021/04/15 05:14:47;;;;;;;6.83;6.07;;;;;;;3.85;63.27;96291.28;5013629;28;20227;-79
2021/04/15 05:17:28;;;;;;;11.00;6.33;;;;;;;3.90;62.87;96294.25;5013668;28;20206;-80
2021/04/15 05:19:55;;;;;;;7.43;6.20;;;;;;;3.94;63.20;96295.63;5014294;28;20226;-81
2021/04/15 05:22:27;;;;;;;12.57;6.43;;;;;;;3.97;62.89;96296.22;5012796;28;20286;-81
2021/04/15 05:24:58;;;;;;;7.87;5.90;;;;;;;4.04;62.87;96292.25;5027528;28;20205;-79
2021/04/15 05:27:26;;;;;;;7.77;6.40;;;;;;;4.09;62.99;96300.34;5033154;28;20210;-81
2021/04/15 05:30:13;;;;;;;7.50;6.23;;;;;;;4.08;62.67;96298.75;5032083;28;20277;-80
2021/04/15 05:32:41;;;;;;;7.93;5.90;;;;;;;4.06;62.77;96298.03;4994012;28;20227;-80
2021/04/15 05:35:12;;;;;;;8.93;5.97;;;;;;;4.04;62.54;96296.56;5027098;28;20817;-81
2021/04/15 05:37:38;;;;;;;8.43;6.07;;;;;;;4.07;62.77;96301.41;5019733;28;20203;-80
2021/04/15 05:40:05;;;;;;;8.33;6.33;;;;;;;4.19;62.91;96302.22;5016488;28;20199;-80
2021/04/15 05:42:35;;;;;;;8.57;6.30;;;;;;;4.25;62.18;96299.16;5013801;28;20256;-80
2021/04/15 05:45:09;;;;;;;8.00;6.20;;;;;;;4.29;62.22;96300.53;5012602;28;20202;-80
2021/04/15 05:47:48;;;;;;;7.93;6.23;;;;;;;4.34;62.40;96301.81;5008924;28;20225;-81
2021/04/15 05:50:20;;;;;;;6.97;5.77;;;;;;;4.34;62.33;96298.44;5009115;28;20209;-81
2021/04/15 05:52:52;;;;;;;7.50;5.40;;;;;;;4.36;62.12;96297.41;5013887;28;20225;-80
2021/04/15 05:55:24;;;;;;;7.70;5.80;;;;;;;4.41;61.84;96299.59;5012954;28;20219;-81
2021/04/15 05:57:59;;;;;;;6.97;5.43;;;;;;;4.47;61.73;96302.47;5017872;28;20208;-83
2021/04/15 06:00:33;;;;;;;8.20;6.20;;;;;;;4.54;61.62;96289.22;5012804;28;20207;-81
2021/04/15 06:03:09;;;;;;;7.10;6.17;;;;;;;4.51;61.46;96293.63;5019729;28;20225;-81
2021/04/15 06:05:40;;;;;;;8.37;5.57;;;;;;;4.54;61.17;96296.88;5013982;28;20229;-80
2021/04/15 06:08:09;;;;;;;10.27;5.70;;;;;;;4.50;61.33;96293.75;5017427;28;20614;-82
2021/04/15 06:10:37;;;;;;;11.83;5.93;;;;;;;4.53;61.64;96301.16;5013456;28;20237;-81
2021/04/15 06:13:13;;;;;;;7.93;5.87;;;;;;;4.48;61.61;96301.53;5013136;28;20238;-79
2021/04/15 06:15:44;;;;;;;8.63;5.93;;;;;;;4.55;61.78;96301.06;5028467;28;20209;-82
2021/04/15 06:18:23;;;;;;;9.23;6.00;;;;;;;4.58;61.52;96298.25;5015765;28;20235;-80
2021/04/15 06:20:56;;;;;;;7.47;5.30;;;;;;;4.67;61.22;96303.41;5008726;28;20195;-81
2021/04/15 06:23:26;;;;;;;9.63;5.70;;;;;;;4.69;61.34;96303.31;5012427;28;20215;-81
2021/04/15 06:25:54;;;;;;;7.60;5.77;;;;;;;4.69;60.94;96305.84;5020652;28;20680;-80
2021/04/15 06:28:25;;;;;;;7.53;6.17;;;;;;;4.73;61.13;96302.94;5011976;28;20195;-81
2021/04/15 06:31:05;;;;;;;8.83;6.37;;;;;;;4.70;60.99;96307.47;5011057;28;20191;-82
2021/04/15 06:33:31;;;;;;;7.60;5.60;;;;;;;4.76;60.79;96309.53;5012728;28;20305;-81
2021/04/15 06:36:00;;;;;;;7.10;5.80;;;;;;;4.88;60.95;96311.09;5014452;28;20666;-80
2021/04/15 06:38:33;;;;;;;6.63;5.80;;;;;;;4.89;60.51;96320.38;5012433;28;20226;-80
2021/04/15 06:41:24;;;;;;;9.53;6.17;;;;;;;4.95;60.38;96324.19;5032711;28;20202;-81
2021/04/15 06:44:26;;;;;;;11.00;6.20;;;;;;;4.90;59.88;96319.44;5013709;28;20273;-81
2021/04/15 06:47:27;;;;;;;10.60;6.03;;;;;;;4.96;60.23;96329.16;4969774;28;20229;-80
2021/04/15 06:50:05;;;;;;;7.27;6.00;;;;;;;5.11;59.94;96333.03;5017382;28;20197;-81
2021/04/15 06:52:41;;;;;;;6.67;5.97;;;;;;;4.94;58.93;96330.22;5025285;28;20205;-80
2021/04/15 06:55:23;;;;;;;9.13;6.80;;;;;;;5.03;58.57;96332.81;5005791;28;20751;-79
2021/04/15 06:57:59;;;;;;;10.13;6.53;;;;;;;5.09;59.08;96329.78;5011095;28;20264;-79
2021/04/15 07:00:50;;;;;;;11.33;6.87;;;;;;;5.13;58.62;96328.63;5011123;28;20225;-81
2021/04/15 07:03:34;;;;;;;8.67;6.30;;;;;;;5.28;57.99;96341.06;5000024;28;20646;-81
2021/04/15 07:06:05;;;;;;;7.60;6.23;;;;;;;5.35;58.39;96332.78;5015375;28;20198;-81
2021/04/15 07:09:38;;;;;;;8.17;6.17;;;;;;;5.39;57.16;96333.31;5018844;28;20201;-81
2021/04/15 07:12:30;;;;;;;8.27;5.87;;;;;;;5.29;57.13;96328.16;5011677;28;20221;-80
2021/04/15 07:15:32;;;;;;;8.23;6.40;;;;;;;5.14;57.80;96340.44;5018393;28;20209;-79
2021/04/15 07:18:09;;;;;;;8.73;6.20;;;;;;;5.34;57.96;96335.44;5012595;28;20210;-80
2021/04/15 07:20:52;;;;;;;8.00;6.23;;;;;;;5.48;57.75;96341.03;5024899;28;20194;-81
2021/04/15 07:23:57;;;;;;;10.93;6.60;;;;;;;5.54;56.87;96340.53;5011687;28;20245;-81
2021/04/15 07:26:52;;;;;;;8.37;5.97;;;;;;;5.64;57.22;96337.22;5012533;28;20202;-82
2021/04/15 07:29:35;;;;;;;8.03;6.17;;;;;;;5.71;57.86;96339.16;5011915;28;20199;-83
2021/04/15 07:32:27;;;;;;;8.50;6.50;;;;;;;5.87;56.95;96349.69;5025548;28;20201;-82
2021/04/15 07:35:16;;;;;;;8.83;5.90;;;;;;;6.17;56.82;96346.31;5022334;28;20191;-81
2021/04/15 07:37:55;;;;;;;9.17;6.27;;;;;;;6.33;56.41;96340.72;5012863;28;20207;-81
2021/04/15 07:40:40;;;;;;;7.90;6.30;;;;;;;6.44;55.14;96339.78;5025482;28;20201;-82
2021/04/15 07:43:25;;;;;;;8.20;6.20;;;;;;;6.53;54.45;96344.13;5010520;28;20230;-79
2021/04/15 07:46:06;;;;;;;8.47;6.03;;;;;;;7.05;52.92;96345.47;5021557;28;20202;-81
2021/04/15 07:48:48;;;;;;;6.70;6.10;;;;;;;7.43;52.05;96344.63;5009451;28;20203;-79
2021/04/15 07:51:47;;;;;;;8.57;6.03;;;;;;;7.70;50.75;96345.63;5009915;28;20207;-83
2021/04/15 07:54:35;;;;;;;11.60;6.17;;;;;;;7.61;50.85;96339.59;4997249;28;20227;-80
2021/04/15 07:57:30;;;;;;;7.10;6.07;;;;;;;7.53;51.46;96352.28;5016960;28;20199;-80
2021/04/15 08:00:20;;;;;;;9.67;6.17;;;;;;;7.37;52.29;96349.47;5009767;28;20218;-81
2021/04/15 08:03:11;;;;;;;8.03;6.40;;;;;;;7.36;52.33;96350.41;4973287;28;20279;-79
2021/04/15 08:05:51;;;;;;;9.30;6.60;;;;;;;7.43;52.38;96354.06;5003055;28;20253;-80
2021/04/15 08:08:50;;;;;;;8.67;6.37;;;;;;;7.44;52.30;96353.91;5014929;28;20186;-82
2021/04/15 08:11:43;;;;;;;7.20;6.50;;;;;;;7.63;51.55;96355.63;5030370;28;20298;-80
2021/04/15 08:14:27;;;;;;;8.13;6.83;;;;;;;7.72;50.38;96347.09;5013158;28;20252;-82
2021/04/15 08:17:09;;;;;;;8.63;6.60;;;;;;;8.03;50.14;96355.34;5013842;28;20198;-82
2021/04/15 08:20:02;;;;;;;9.03;6.70;;;;;;;8.09;49.00;96346.25;5028867;28;20228;-84
2021/04/15 08:23:22;;;;;;;6.87;6.13;;;;;;;8.36;48.76;96346.31;5011675;28;20214;-80
2021/04/15 08:26:20;;;;;;;8.20;5.83;;;;;;;8.82;47.79;96342.78;4952121;28;20572;-83
2021/04/15 08:29:03;;;;;;;7.73;6.93;;;;;;;9.31;47.44;96351.66;4949890;28;20193;-82
2021/04/15 08:31:46;;;;;;;7.17;6.27;;;;;;;9.63;46.58;96347.69;5003975;28;20207;-81
2021/04/15 08:34:49;;;;;;;9.23;6.53;;;;;;;10.02;46.06;96348.06;5014850;28;20309;-83
2021/04/15 08:37:36;;;;;;;7.23;6.10;;;;;;;10.02;43.69;96342.91;5032055;28;20205;-83
2021/04/15 08:40:25;;;;;;;9.10;6.57;;;;;;;10.18;44.21;96331.91;5017193;28;20223;-80
2021/04/15 08:43:06;;;;;;;7.30;6.60;;;;;;;9.88;44.55;96334.00;5023466;28;20724;-82
2021/04/15 08:45:43;;;;;;;12.57;6.03;;;;;;;9.95;47.72;96335.03;5035873;28;20206;-83
2021/04/15 08:48:30;;;;;;;7.27;6.53;;;;;;;10.21;44.22;96332.41;5023087;28;20617;-81
2021/04/15 08:51:08;;;;;;;7.30;6.47;;;;;;;10.56;43.30;96328.03;5015285;28;20213;-79
2021/04/15 08:53:50;;;;;;;8.67;6.33;;;;;;;10.89;43.32;96323.72;5028293;28;20229;-83
2021/04/15 08:56:22;;;;;;;7.90;6.00;;;;;;;11.10;41.81;96323.25;5030673;28;20570;-83
2021/04/15 08:59:02;;;;;;;7.13;6.43;;;;;;;11.00;42.72;96324.19;5015337;28;20272;-83
2021/04/15 09:01:41;;;;;;;6.10;5.60;;;;;;;10.47;42.18;96318.66;5015282;28;20211;-83
2021/04/15 09:04:14;;;;;;;6.77;5.90;;;;;;;9.96;43.19;96330.69;5014815;28;20214;-81
2021/04/15 09:06:45;;;;;;;8.50;6.33;;;;;;;9.61;44.34;96327.31;5014733;28;20241;-81
2021/04/15 09:09:26;;;;;;;9.23;5.90;;;;;;;9.27;44.10;96326.41;5019308;28;20194;-82
2021/04/15 09:12:16;;;;;;;7.03;6.17;;;;;;;9.08;45.13;96327.41;5033945;28;20218;-81
2021/04/15 09:14:57;;;;;;;7.37;5.43;;;;;;;8.93;44.77;96322.00;5031739;28;20614;-82
2021/04/15 09:17:31;;;;;;;6.63;5.43;;;;;;;8.74;45.39;96318.75;5033537;28;20251;-80
2021/04/15 09:20:07;;;;;;;6.17;5.57;;;;;;;8.57;44.10;96318.63;5024670;28;20241;-81
2021/04/15 09:23:06;;;;;;;9.70;5.63;;;;;;;8.51;44.57;96321.75;5034269;28;20206;-82
2021/04/15 09:25:44;;;;;;;7.43;5.50;;;;;;;8.29;44.49;96322.94;4981185;28;20210;-81
2021/04/15 09:28:21;;;;;;;7.47;5.70;;;;;;;8.18;44.61;96323.16;5013780;28;20206;-81
2021/04/15 09:30:54;;;;;;;7.33;5.50;;;;;;;8.20;44.87;96318.69;5025884;28;20202;-82
2021/04/15 09:34:09;;;;;;;7.30;6.03;;;;;;;8.41;44.39;96321.03;5025419;28;20218;-81
2021/04/15 09:36:48;;;;;;;7.83;5.40;;;;;;;8.36;43.20;96323.22;5022952;28;20202;-83
2021/04/15 09:39:42;;;;;;;6.13;5.27;;;;;;;8.19;43.75;96309.38;5025489;28;20222;-80
2021/04/15 09:42:29;;;;;;;6.73;4.97;;;;;;;8.09;44.66;96320.63;5014297;28;20246;-82
2021/04/15 09:45:22;;;;;;;6.33;5.40;;;;;;;8.18;44.56;96315.44;5014454;28;20257;-81
2021/04/15 09:48:05;;;;;;;5.30;4.90;;;;;;;8.28;44.43;96313.63;5019996;28;20630;-79
2021/04/15 09:50:38;;;;;;;6.03;5.27;;;;;;;8.33;44.37;96318.38;5033755;28;20222;-81
2021/04/15 09:53:16;;;;;;;8.30;5.30;;;;;;;8.31;44.47;96312.53;5024520;28;20219;-82
2021/04/15 09:55:55;;;;;;;6.37;5.10;;;;;;;8.25;44.88;96316.50;5029139;28;20194;-81
2021/04/15 09:58:29;;;;;;;5.50;5.00;;;;;;;8.28;44.68;96315.38;5030885;28;20689;-83
2021/04/15 10:00:58;;;;;;;5.93;4.53;;;;;;;8.31;42.38;96318.47;5033373;28;20205;-82
2021/04/15 10:03:46;;;;;;;5.87;4.50;;;;;;;8.27;42.15;96313.81;5015551;28;20226;-82
2021/04/15 10:06:21;;;;;;;6.03;5.07;;;;;;;8.30;42.93;96316.84;5014059;28;20780;-80
2021/04/15 10:09:09;;;;;;;5.37;4.87;;;;;;;8.46;42.87;96315.47;4993546;28;20211;-82
2021/04/15 10:11:50;;;;;;;5.23;4.80;;;;;;;8.48;42.50;96313.53;5015717;28;20226;-83
2021/04/15 10:14:46;;;;;;;5.87;5.13;;;;;;;8.38;41.90;96308.47;5033116;28;20782;-80
2021/04/15 10:17:20;;;;;;;5.80;5.20;;;;;;;8.42;43.03;96311.56;5026660;28;20201;-82
2021/04/15 10:20:28;;;;;;;6.07;4.97;;;;;;;8.49;42.17;96308.25;5028437;28;20249;-81
2021/04/15 10:23:19;;;;;;;4.83;4.43;;;;;;;8.68;42.17;96304.75;5014076;28;20219;-79
2021/04/15 10:25:57;;;;;;;5.07;4.67;;;;;;;8.84;49.18;96306.66;5000759;28;20191;-80
2021/04/15 10:28:38;;;;;;;4.90;4.40;;;;;;;8.84;39.87;96309.25;5009364;28;20205;-80
2021/04/15 10:31:49;;;;;;;5.27;4.00;;;;;;;8.84;38.17;96302.34;5000817;28;20210;-81
2021/04/15 10:35:09;;;;;;;3.73;3.10;;;;;;;9.12;38.46;96305.59;4966122;28;20253;-83
2021/04/15 10:38:11;;;;;;;6.10;3.67;;;;;;;9.24;41.28;96301.00;4948351;29;20218;-82
2021/04/15 10:40:54;;;;;;;4.10;3.80;;;;;;;9.22;41.69;96308.09;4952818;28;20287;-83
2021/04/15 10:43:45;;;;;;;5.10;3.60;;;;;;;9.16;42.02;96299.22;5003770;28;20215;-79
2021/04/15 10:46:29;;;;;;;3.80;3.50;;;;;;;9.05;41.62;96306.34;5024118;28;20198;-84
2021/04/15 10:49:00;;;;;;;5.50;3.40;;;;;;;8.94;42.49;96305.63;5022052;28;20195;-82
2021/04/15 10:51:49;;;;;;;4.13;3.80;;;;;;;8.91;42.61;96308.47;5011239;28;20207;-83
2021/04/15 10:54:25;;;;;;;4.10;3.70;;;;;;;8.84;42.71;96309.25;5014907;28;20226;-84
2021/04/15 10:56:55;;;;;;;3.70;3.20;;;;;;;8.75;42.42;96305.78;5027716;28;20206;-85
2021/04/15 10:59:37;;;;;;;3.70;3.40;;;;;;;8.73;42.41;96310.25;5015867;28;20295;-85
2021/04/15 11:02:37;;;;;;;5.17;3.97;;;;;;;8.71;43.87;96313.91;5010219;28;20578;-85
2021/04/15 11:05:25;;;;;;;4.63;4.23;;;;;;;8.84;43.13;96307.47;5019983;28;20207;-83
2021/04/15 11:07:54;;;;;;;5.37;3.90;;;;;;;8.98;42.94;96301.00;5013850;28;20202;-84
2021/04/15 11:10:26;;;;;;;3.87;3.50;;;;;;;8.53;40.34;96295.94;4998876;28;20219;-83
2021/04/15 11:13:07;;;;;;;3.83;3.53;;;;;;;8.62;41.78;96293.31;5008226;28;20281;-80
2021/04/15 11:15:40;;;;;;;3.73;3.43;;;;;;;8.65;41.47;96290.47;5021890;28;20203;-82
2021/04/15 11:18:08;;;;;;;3.83;3.53;;;;;;;8.54;40.52;96280.41;5015480;28;20701;-83
2021/04/15 11:21:11;;;;;;;4.23;3.67;;;;;;;8.11;40.58;96281.06;5012147;28;20257;-84
2021/04/15 11:23:47;;;;;;;4.40;4.00;;;;;;;7.89;40.93;96284.00;5027564;28;20289;-83
2021/04/15 11:26:20;;;;;;;4.10;3.67;;;;;;;8.06;40.91;96283.28;5029046;28;20704;-82
2021/04/15 11:28:50;;;;;;;4.93;3.63;;;;;;;8.15;40.93;96276.47;5015773;28;20194;-83
2021/04/15 11:31:28;;;;;;;6.27;4.10;;;;;;;8.36;41.22;96282.16;5018281;28;20281;-83
2021/04/15 11:34:06;;;;;;;4.17;3.77;;;;;;;8.42;40.26;96273.09;5028766;28;20567;-83
2021/04/15 11:36:38;;;;;;;3.70;3.40;;;;;;;8.34;41.05;96275.56;5015834;28;20572;-82
2021/04/15 11:39:13;;;;;;;5.97;4.00;;;;;;;8.56;41.89;96273.38;5026088;28;20214;-83
2021/04/15 11:41:50;;;;;;;4.17;3.77;;;;;;;8.83;41.99;96282.75;5015148;28;20190;-83
2021/04/15 11:44:30;;;;;;;5.53;4.47;;;;;;;8.73;40.30;96273.50;5010962;28;20638;-81
2021/04/15 11:47:04;;;;;;;5.97;4.47;;;;;;;8.37;39.89;96278.63;5017238;28;20228;-84
2021/04/15 11:49:33;;;;;;;5.10;4.50;;;;;;;8.31;40.92;96267.16;5020776;28;20201;-83
2021/04/15 11:52:16;;;;;;;4.43;4.03;;;;;;;8.28;40.78;96264.88;5028014;28;20607;-82
2021/04/15 11:54:44;;;;;;;4.50;4.10;;;;;;;8.49;41.29;96264.63;5022042;28;20211;-80
2021/04/15 11:57:30;;;;;;;4.57;3.90;;;;;;;9.14;40.68;96261.78;5012203;28;20213;-83
2021/04/15 12:00:15;;;;;;;4.20;3.80;;;;;;;9.64;39.74;96257.53;5019747;28;20640;-83
2021/04/15 12:02:45;;;;;;;4.33;3.60;;;;;;;9.89;38.69;96257.66;5013281;28;20205;-83
2021/04/15 12:05:16;;;;;;;4.27;3.87;;;;;;;9.58;37.71;96252.25;5021004;28;20529;-81
2021/04/15 12:07:48;;;;;;;4.20;3.80;;;;;;;9.73;38.79;96250.69;5012486;28;20289;-83
2021/04/15 12:10:15;;;;;;;5.07;4.57;;;;;;;9.75;38.01;96253.09;5015791;28;20234;-83
2021/04/15 12:12:46;;;;;;;5.17;4.33;;;;;;;9.86;37.84;96248.47;5012102;28;21002;-83
2021/04/15 12:15:17;;;;;;;4.37;3.97;;;;;;;9.93;36.92;96248.69;5034918;28;20205;-81
2021/04/15 12:17:53;;;;;;;4.37;3.97;;;;;;;10.24;37.79;96252.31;5033514;28;20209;-83
2021/04/15 12:20:33;;;;;;;5.60;3.80;;;;;;;10.84;38.05;96252.06;5015414;28;20210;-84
2021/04/15 12:32:54;;;;;;;4.13;3.73;;;;;;;12.00;35.10;96244.69;4932480;28;20212;-81
2021/04/15 12:36:13;;;;;;;4.10;3.70;;;;;;;12.27;35.03;96246.03;5014070;28;20199;-83
2021/04/15 12:38:46;;;;;;;3.37;2.93;;;;;;;11.96;33.72;96240.84;5014737;28;20544;-83
2021/04/15 12:41:13;;;;;;;3.03;2.60;;;;;;;12.07;32.73;96240.47;5013061;28;20198;-83
2021/04/15 12:43:41;;;;;;;2.50;2.30;;;;;;;12.23;32.83;96239.59;5015515;28;20222;-84